createdAt,value
2017-09-14T00:00:37.376Z,8.55
2017-09-14T00:03:06.257Z,6.28
2017-09-14T00:05:35.121Z,3.83
2017-09-14T00:08:03.979Z,2.70
2017-09-14T00:10:33.198Z,2.80
2017-09-14T00:13:02.042Z,2.70
2017-09-14T00:15:31.699Z,2.12
2017-09-14T00:18:00.490Z,2.67
2017-09-14T00:20:29.326Z,2.50
2017-09-14T00:22:59.039Z,12.85
2017-09-14T00:25:28.595Z,3.17
2017-09-14T00:27:57.456Z,2.42
2017-09-14T00:30:26.509Z,3.00
2017-09-14T00:32:56.118Z,2.37
2017-09-14T00:35:25.679Z,2.83
2017-09-14T00:37:54.817Z,2.87
2017-09-14T00:40:24.841Z,2.87
2017-09-14T00:42:53.753Z,2.72
2017-09-14T00:45:23.010Z,2.40
2017-09-14T00:47:52.634Z,3.17
2017-09-14T00:50:22.298Z,3.75
2017-09-14T00:52:51.818Z,4.17
2017-09-14T00:55:20.900Z,4.23
2017-09-14T00:57:49.762Z,4.00
2017-09-14T01:00:19.084Z,5.90
2017-09-14T01:02:47.936Z,5.00
2017-09-14T01:05:16.718Z,4.47
2017-09-14T01:07:45.732Z,3.50
2017-09-14T01:10:15.073Z,4.12
2017-09-14T01:12:44.346Z,4.10
2017-09-14T01:15:13.289Z,3.80
2017-09-14T01:17:42.884Z,3.90
2017-09-14T01:20:11.842Z,4.07
2017-09-14T01:22:40.751Z,5.05
2017-09-14T01:25:10.840Z,3.33
2017-09-14T01:27:39.936Z,3.30
2017-09-14T01:30:09.032Z,5.22
2017-09-14T01:32:38.118Z,5.10
2017-09-14T01:35:07.058Z,4.20
2017-09-14T01:37:36.774Z,4.00
2017-09-14T01:40:05.721Z,4.75
2017-09-14T01:42:35.118Z,3.53
2017-09-14T01:45:04.212Z,3.15
2017-09-14T01:47:33.177Z,4.70
2017-09-14T01:50:02.309Z,3.62
2017-09-14T01:52:31.136Z,3.90
2017-09-14T01:55:00.524Z,3.20
2017-09-14T01:57:29.467Z,4.07
2017-09-14T01:59:58.377Z,3.85
2017-09-14T02:02:27.468Z,4.97
2017-09-14T02:04:56.554Z,4.40
2017-09-14T02:07:25.818Z,5.00
2017-09-14T02:09:54.684Z,4.70
2017-09-14T02:12:23.638Z,3.80
2017-09-14T02:14:52.497Z,3.63
2017-09-14T02:17:21.615Z,3.70
2017-09-14T02:19:50.439Z,4.07
2017-09-14T02:22:19.383Z,3.12
2017-09-14T02:24:49.706Z,3.90
2017-09-14T02:27:18.800Z,3.50
2017-09-14T02:29:47.893Z,3.80
2017-09-14T02:32:17.123Z,3.77
2017-09-14T02:34:46.872Z,3.95
2017-09-14T02:37:16.198Z,3.35
2017-09-14T02:39:45.071Z,4.60
2017-09-14T02:42:13.979Z,3.10
2017-09-14T02:44:43.094Z,3.75
2017-09-14T02:47:12.451Z,3.70
2017-09-14T02:49:41.738Z,3.30
2017-09-14T02:52:10.752Z,3.05
2017-09-14T02:54:39.673Z,3.37
2017-09-14T02:57:08.530Z,3.55
2017-09-14T02:59:37.500Z,3.22
2017-09-14T03:02:06.320Z,4.10
2017-09-14T03:04:35.162Z,4.37
2017-09-14T03:07:04.490Z,4.87
2017-09-14T03:09:33.405Z,6.47
2017-09-14T03:12:02.349Z,9.63
2017-09-14T03:14:31.298Z,6.40
2017-09-14T03:17:00.272Z,5.80
2017-09-14T03:19:29.582Z,4.35
2017-09-14T03:21:58.717Z,3.87
2017-09-14T03:24:27.830Z,3.67
2017-09-14T03:26:56.975Z,3.90
2017-09-14T03:29:25.714Z,3.35
2017-09-14T03:31:54.928Z,4.18
2017-09-14T03:34:23.938Z,3.97
2017-09-14T03:36:53.060Z,4.00
2017-09-14T03:39:22.862Z,4.00
2017-09-14T03:41:52.029Z,3.60
2017-09-14T03:44:21.260Z,3.73
2017-09-14T03:46:50.443Z,4.15
2017-09-14T03:49:19.513Z,4.00
2017-09-14T03:51:48.473Z,4.10
2017-09-14T03:54:17.444Z,3.90
2017-09-14T03:56:46.429Z,3.80
2017-09-14T03:59:16.299Z,3.97
2017-09-14T04:01:46.148Z,4.30
2017-09-14T04:04:15.867Z,4.10
2017-09-14T04:06:45.656Z,3.80
2017-09-14T04:09:14.601Z,4.00
2017-09-14T04:11:43.924Z,3.80
2017-09-14T04:14:13.190Z,4.17
2017-09-14T04:16:42.090Z,3.92
2017-09-14T04:19:10.964Z,4.10
2017-09-14T04:21:40.255Z,3.50
2017-09-14T04:24:09.266Z,3.90
2017-09-14T04:26:38.321Z,4.50
2017-09-14T04:29:08.265Z,4.07
2017-09-14T04:31:37.273Z,4.30
2017-09-14T04:34:06.373Z,3.30
2017-09-14T04:36:35.190Z,3.50
2017-09-14T04:39:04.302Z,3.33
2017-09-14T04:41:33.881Z,4.00
2017-09-14T04:44:03.848Z,3.47
2017-09-14T04:46:32.776Z,3.80
2017-09-14T04:49:01.579Z,3.97
2017-09-14T04:51:31.516Z,3.40
2017-09-14T04:54:01.394Z,4.03
2017-09-14T04:56:30.422Z,3.07
2017-09-14T04:59:00.277Z,3.08
2017-09-14T05:01:29.217Z,3.12
2017-09-14T05:03:59.493Z,2.42
2017-09-14T05:06:28.434Z,3.10
2017-09-14T05:08:58.229Z,3.20
2017-09-14T05:11:27.207Z,2.97
2017-09-14T05:13:56.142Z,3.20
2017-09-14T05:16:25.362Z,3.00
2017-09-14T05:18:54.176Z,3.40
2017-09-14T05:21:23.194Z,3.00
2017-09-14T05:23:53.201Z,3.30
2017-09-14T05:26:23.109Z,5.30
2017-09-14T05:28:52.008Z,4.30
2017-09-14T05:31:22.042Z,3.97
2017-09-14T05:33:51.066Z,2.70
2017-09-14T05:36:20.015Z,3.17
2017-09-14T05:38:49.820Z,1.98
2017-09-14T05:41:19.642Z,2.47
2017-09-14T05:43:49.798Z,2.95
2017-09-14T05:46:19.137Z,5.40
2017-09-14T05:48:48.147Z,3.12
2017-09-14T05:51:17.938Z,4.43
2017-09-14T05:53:46.880Z,4.80
2017-09-14T05:56:15.893Z,3.90
2017-09-14T05:58:45.343Z,3.62
2017-09-14T06:01:15.306Z,2.92
2017-09-14T06:03:44.363Z,3.20
2017-09-14T06:06:13.712Z,3.70
2017-09-14T06:08:43.027Z,3.00
2017-09-14T06:11:11.882Z,3.30
2017-09-14T06:13:40.731Z,3.00
2017-09-14T06:16:10.386Z,3.17
2017-09-14T06:18:39.598Z,3.37
2017-09-14T06:21:08.479Z,2.80
2017-09-14T06:23:37.289Z,2.83
2017-09-14T06:26:06.938Z,3.00
2017-09-14T06:28:35.803Z,2.70
2017-09-14T06:31:06.027Z,2.80
2017-09-14T06:33:35.913Z,2.80
2017-09-14T06:36:04.834Z,2.90
2017-09-14T06:38:34.057Z,2.15
2017-09-14T06:41:03.006Z,2.62
2017-09-14T06:43:32.733Z,2.53
2017-09-14T06:46:01.649Z,1.77
2017-09-14T06:48:30.447Z,2.53
2017-09-14T06:50:59.747Z,2.00
2017-09-14T06:53:28.547Z,2.70
2017-09-14T06:55:58.310Z,2.60
2017-09-14T06:58:27.428Z,2.20
2017-09-14T07:00:56.371Z,2.37
2017-09-14T07:03:25.921Z,1.70
2017-09-14T07:05:54.969Z,1.70
2017-09-14T07:08:24.541Z,1.70
2017-09-14T07:10:53.453Z,1.40
2017-09-14T07:13:23.079Z,1.50
2017-09-14T07:15:52.661Z,1.60
2017-09-14T07:18:21.521Z,1.60
2017-09-14T07:20:50.832Z,1.70
2017-09-14T07:23:19.734Z,1.53
2017-09-14T07:25:48.669Z,1.40
2017-09-14T07:28:17.790Z,1.65
2017-09-14T07:30:46.827Z,1.57
2017-09-14T07:33:17.186Z,12.98
2017-09-14T07:35:46.247Z,3.03
2017-09-14T07:38:16.657Z,2.45
2017-09-14T07:40:45.866Z,2.15
2017-09-14T07:43:15.654Z,2.10
2017-09-14T07:45:44.746Z,2.00
2017-09-14T07:48:14.073Z,1.92
2017-09-14T07:50:43.069Z,2.20
2017-09-14T07:53:12.702Z,2.35
2017-09-14T07:55:41.728Z,2.10
2017-09-14T07:58:10.945Z,4.93
2017-09-14T08:00:39.979Z,5.43
2017-09-14T08:03:09.258Z,7.07
2017-09-14T08:05:39.070Z,4.12
2017-09-14T08:08:08.946Z,4.87
2017-09-14T08:10:37.823Z,4.75
2017-09-14T08:13:06.778Z,8.63
2017-09-14T08:15:35.988Z,4.40
2017-09-14T08:18:04.889Z,8.70
2017-09-14T08:20:33.799Z,6.10
2017-09-14T08:23:02.989Z,2.30
2017-09-14T08:25:31.892Z,3.10
2017-09-14T08:28:00.861Z,9.05
2017-09-14T08:30:29.849Z,3.20
2017-09-14T08:32:58.931Z,2.90
2017-09-14T08:35:28.226Z,3.00
2017-09-14T08:37:57.254Z,3.35
2017-09-14T08:40:26.433Z,3.28
2017-09-14T08:42:55.476Z,2.40
2017-09-14T08:45:25.329Z,3.10
2017-09-14T08:47:54.353Z,2.10
2017-09-14T08:50:23.409Z,2.45
2017-09-14T08:52:52.429Z,1.97
2017-09-14T08:55:21.397Z,3.47
2017-09-14T08:57:50.521Z,3.42
2017-09-14T09:00:19.618Z,1.73
2017-09-14T09:02:48.628Z,2.10
2017-09-14T09:05:18.124Z,1.80
2017-09-14T09:07:47.378Z,1.70
2017-09-14T09:10:17.516Z,1.90
2017-09-14T09:12:46.352Z,1.45
2017-09-14T09:15:15.201Z,1.87
2017-09-14T09:17:44.662Z,1.48
2017-09-14T09:20:13.900Z,2.00
2017-09-14T09:22:42.942Z,1.47
2017-09-14T09:25:12.731Z,1.48
2017-09-14T09:27:41.638Z,1.50
2017-09-14T09:30:11.390Z,1.50
2017-09-14T09:32:40.200Z,1.97
2017-09-14T09:35:09.260Z,1.50
2017-09-14T09:37:38.363Z,1.40
2017-09-14T09:40:07.385Z,1.45
2017-09-14T09:42:36.326Z,1.30
2017-09-14T09:45:05.458Z,1.85
2017-09-14T09:47:34.742Z,1.85
2017-09-14T09:50:03.799Z,2.90
2017-09-14T09:52:33.672Z,1.90
2017-09-14T09:55:02.771Z,1.37
2017-09-14T09:57:31.848Z,1.58
2017-09-14T10:00:00.998Z,1.67
2017-09-14T10:02:30.848Z,2.50
2017-09-14T10:04:59.695Z,1.70
2017-09-14T10:07:29.542Z,1.50
2017-09-14T10:09:58.378Z,1.48
2017-09-14T10:12:27.321Z,1.60
2017-09-14T10:14:56.276Z,1.30
2017-09-14T10:17:25.885Z,1.40
2017-09-14T10:19:55.663Z,2.62
2017-09-14T10:22:24.748Z,1.67
2017-09-14T10:24:53.758Z,1.90
2017-09-14T10:27:22.705Z,2.20
2017-09-14T10:29:51.949Z,2.40
2017-09-14T10:32:21.020Z,2.30
2017-09-14T10:34:50.328Z,1.60
2017-09-14T10:37:19.373Z,1.60
2017-09-14T10:39:48.319Z,1.60
2017-09-14T10:42:17.623Z,1.60
2017-09-14T10:44:46.602Z,1.20
2017-09-14T10:47:15.707Z,1.83
2017-09-14T10:49:44.724Z,1.37
2017-09-14T10:52:13.710Z,1.67
2017-09-14T10:54:42.718Z,2.28
2017-09-14T10:57:11.697Z,2.80
2017-09-14T10:59:41.275Z,2.75
2017-09-14T11:02:10.128Z,3.28
2017-09-14T11:04:39.059Z,3.10
2017-09-14T11:08:37.414Z,2.10
2017-09-14T11:11:06.338Z,2.60
2017-09-14T11:13:36.074Z,2.50
2017-09-14T11:16:05.046Z,2.58
2017-09-14T11:18:35.930Z,2.60
2017-09-14T11:21:05.486Z,2.43
2017-09-14T11:23:35.123Z,3.03
2017-09-14T11:26:04.278Z,3.90
2017-09-14T11:28:33.081Z,2.30
2017-09-14T11:31:02.830Z,4.20
2017-09-14T11:33:31.927Z,3.60
2017-09-14T11:36:01.068Z,2.60
2017-09-14T11:38:31.097Z,3.90
2017-09-14T11:41:00.840Z,3.17
2017-09-14T11:43:30.913Z,2.70
2017-09-14T11:46:00.999Z,6.97
2017-09-14T11:48:30.253Z,7.60
2017-09-14T11:51:00.375Z,19.97
2017-09-14T11:53:29.515Z,13.38
2017-09-14T11:55:58.952Z,4.05
2017-09-14T11:58:28.918Z,8.50
2017-09-14T12:00:58.015Z,5.68
2017-09-14T12:03:27.060Z,2.93
2017-09-14T12:05:55.986Z,2.08
2017-09-14T12:08:26.109Z,3.35
2017-09-14T12:10:55.802Z,2.70
2017-09-14T12:13:25.791Z,2.28
2017-09-14T12:15:55.626Z,2.30
2017-09-14T12:18:25.477Z,2.22
2017-09-14T12:20:54.647Z,2.30
2017-09-14T12:23:23.605Z,1.48
2017-09-14T12:25:52.441Z,13.77
2017-09-14T12:28:21.307Z,8.77
2017-09-14T12:30:51.057Z,15.48
2017-09-14T12:33:19.989Z,19.52
2017-09-14T12:35:48.796Z,9.35
2017-09-14T12:38:18.419Z,9.85
2017-09-14T12:40:47.246Z,7.40
2017-09-14T12:43:16.171Z,4.50
2017-09-14T12:45:45.806Z,7.30
2017-09-14T12:48:15.254Z,3.90
2017-09-14T12:50:44.710Z,7.68
2017-09-14T12:53:13.720Z,5.70
2017-09-14T12:55:42.806Z,7.57
2017-09-14T12:58:11.946Z,6.12
2017-09-14T13:00:41.099Z,5.20
2017-09-14T13:03:10.547Z,4.63
2017-09-14T13:05:40.358Z,2.92
2017-09-14T13:08:09.352Z,1.90
2017-09-14T13:10:39.310Z,2.17
2017-09-14T13:13:08.349Z,1.70
2017-09-14T13:15:37.578Z,2.00
2017-09-14T13:18:07.426Z,1.80
2017-09-14T13:20:37.239Z,2.20
2017-09-14T13:23:06.175Z,1.83
2017-09-14T13:25:35.814Z,21.02
2017-09-14T13:28:05.195Z,9.65
2017-09-14T13:30:35.240Z,21.75
2017-09-14T13:33:04.846Z,14.48
2017-09-14T13:35:34.499Z,10.20
2017-09-14T13:38:03.419Z,8.30
2017-09-14T13:40:33.102Z,3.67
2017-09-14T13:43:02.170Z,2.97
2017-09-14T13:45:31.660Z,2.08
2017-09-14T13:48:00.790Z,2.30
2017-09-14T13:50:30.080Z,2.00
2017-09-14T13:52:59.202Z,2.15
2017-09-14T13:55:31.405Z,3.30
2017-09-14T13:58:00.551Z,7.35
2017-09-14T14:00:30.405Z,7.22
2017-09-14T14:02:59.923Z,7.43
2017-09-14T14:05:28.763Z,3.40
2017-09-14T14:07:58.603Z,3.35
2017-09-14T14:10:27.546Z,4.27
2017-09-14T14:12:56.675Z,3.60
2017-09-14T14:15:27.270Z,3.37
2017-09-14T14:17:56.436Z,4.45
2017-09-14T14:20:25.326Z,3.70
2017-09-14T14:22:54.214Z,1.70
2017-09-14T14:25:23.025Z,4.30
2017-09-14T14:27:52.283Z,4.00
2017-09-14T14:30:21.197Z,2.47
2017-09-14T14:32:50.261Z,1.73
2017-09-14T14:35:19.236Z,7.00
2017-09-14T14:37:48.289Z,10.38
2017-09-14T14:40:17.451Z,8.47
2017-09-14T14:42:46.679Z,6.47
2017-09-14T14:45:16.163Z,3.85
2017-09-14T14:47:45.588Z,2.50
2017-09-14T14:50:14.742Z,3.87
2017-09-14T14:52:43.721Z,13.77
2017-09-14T14:55:12.870Z,12.50
2017-09-14T14:57:42.284Z,12.63
2017-09-14T15:00:11.445Z,13.45
2017-09-14T15:02:40.500Z,15.75
2017-09-14T15:05:10.170Z,15.13
2017-09-14T15:07:39.353Z,5.60
2017-09-14T15:10:11.352Z,6.30
2017-09-14T15:12:45.645Z,13.20
2017-09-14T15:15:18.294Z,14.70
2017-09-14T15:17:50.737Z,1.27
2017-09-14T15:20:22.148Z,1.40
2017-09-14T15:22:52.901Z,1.20
2017-09-14T15:25:25.421Z,1.70
2017-09-14T15:27:58.417Z,1.83
2017-09-14T15:30:28.630Z,1.50
2017-09-14T15:32:59.436Z,1.70
2017-09-14T15:35:29.345Z,1.30
2017-09-14T15:37:58.354Z,1.30
2017-09-14T15:42:35.724Z,1.37
2017-09-14T15:46:10.465Z,1.35
2017-09-14T15:48:43.744Z,1.47
2017-09-14T15:52:17.909Z,1.20
2017-09-14T15:54:46.919Z,1.53
2017-09-14T15:57:16.071Z,1.27
2017-09-14T15:59:45.201Z,1.60
2017-09-14T16:02:14.519Z,2.30
2017-09-14T16:04:43.796Z,1.37
2017-09-14T16:07:12.755Z,1.40
2017-09-14T16:09:41.677Z,1.70
2017-09-14T16:12:11.397Z,1.60
2017-09-14T16:14:40.276Z,1.40
2017-09-14T16:17:09.276Z,1.70
2017-09-14T16:19:38.279Z,2.00
2017-09-14T16:22:07.534Z,1.80
2017-09-14T16:24:36.731Z,1.30
2017-09-14T16:27:05.611Z,4.07
2017-09-14T16:29:34.481Z,1.77
2017-09-14T16:32:03.372Z,1.75
2017-09-14T16:34:33.471Z,2.87
2017-09-14T16:37:03.080Z,1.48
2017-09-14T16:39:32.877Z,1.92
2017-09-14T16:42:01.864Z,2.87
2017-09-14T16:44:30.750Z,3.90
2017-09-14T16:46:59.745Z,2.10
2017-09-14T16:49:28.658Z,2.22
2017-09-14T16:51:58.506Z,2.70
2017-09-14T16:54:27.469Z,3.00
2017-09-14T16:56:57.394Z,1.98
2017-09-14T16:59:26.270Z,2.60
2017-09-14T17:01:56.137Z,2.60
2017-09-14T17:04:25.350Z,2.30
2017-09-14T17:06:55.270Z,2.20
2017-09-14T17:09:25.514Z,15.07
2017-09-14T17:11:54.517Z,3.53
2017-09-14T17:14:24.281Z,2.40
2017-09-14T17:16:53.595Z,2.10
2017-09-14T17:19:22.707Z,2.63
2017-09-14T17:21:52.559Z,2.62
2017-09-14T17:24:22.109Z,3.92
2017-09-14T17:26:51.066Z,4.22
2017-09-14T17:29:20.163Z,2.78
2017-09-14T17:31:49.099Z,2.62
2017-09-14T17:34:19.118Z,2.43
2017-09-14T17:36:49.170Z,2.60
2017-09-14T17:39:18.273Z,2.10
2017-09-14T17:41:47.590Z,3.00
2017-09-14T17:44:17.425Z,2.70
2017-09-14T17:46:47.836Z,2.30
2017-09-14T17:49:16.962Z,2.43
2017-09-14T17:51:46.607Z,2.10
2017-09-14T17:54:15.589Z,2.20
2017-09-14T17:56:44.620Z,3.57
2017-09-14T17:59:14.042Z,2.33
2017-09-14T18:01:43.062Z,2.10
2017-09-14T18:04:12.150Z,3.00
2017-09-14T18:06:42.433Z,2.30
2017-09-14T18:09:12.061Z,2.85
2017-09-14T18:11:41.823Z,2.67
2017-09-14T18:14:10.730Z,2.47
2017-09-14T18:16:40.146Z,3.08
2017-09-14T18:19:09.915Z,2.78
2017-09-14T18:21:39.224Z,3.10
2017-09-14T18:24:08.664Z,3.40
2017-09-14T18:26:39.475Z,3.42
2017-09-14T18:29:08.877Z,4.22
2017-09-14T18:31:37.920Z,5.30
2017-09-14T18:34:07.249Z,3.60
2017-09-14T18:36:36.265Z,3.90
2017-09-14T18:39:06.494Z,4.50
2017-09-14T18:41:35.462Z,4.00
2017-09-14T18:44:04.408Z,4.40
2017-09-14T18:46:37.505Z,4.10
2017-09-14T18:49:06.756Z,4.37
2017-09-14T18:51:36.365Z,4.20
2017-09-14T18:54:07.409Z,5.20
2017-09-14T18:56:36.376Z,3.85
2017-09-14T18:59:06.030Z,3.60
2017-09-14T19:02:35.825Z,3.97
2017-09-14T19:05:04.758Z,4.70
2017-09-14T19:07:33.876Z,5.17
2017-09-14T19:10:02.985Z,5.70
2017-09-14T19:12:32.142Z,5.20
2017-09-14T19:15:01.056Z,4.80
2017-09-14T19:17:30.353Z,5.10
2017-09-14T19:19:59.270Z,5.65
2017-09-14T19:22:28.203Z,5.77
2017-09-14T19:24:57.839Z,6.70
2017-09-14T19:27:27.221Z,6.20
2017-09-14T19:29:56.488Z,6.53
2017-09-14T19:32:26.381Z,5.72
2017-09-14T19:34:55.612Z,6.40
2017-09-14T19:37:25.687Z,6.00
2017-09-14T19:39:54.980Z,7.30
2017-09-14T19:42:24.154Z,6.50
2017-09-14T19:44:54.985Z,5.35
2017-09-14T19:47:24.196Z,6.03
2017-09-14T19:49:53.337Z,6.30
2017-09-14T19:52:23.111Z,5.72
2017-09-14T19:54:52.171Z,6.05
2017-09-14T19:57:27.841Z,6.60
2017-09-14T19:59:57.935Z,7.55
2017-09-14T20:02:27.736Z,6.60
2017-09-14T20:04:56.919Z,6.50
2017-09-14T20:07:28.375Z,6.60
2017-09-14T20:10:14.845Z,7.03
2017-09-14T20:12:46.297Z,6.10
2017-09-14T20:15:20.246Z,6.47
2017-09-14T20:17:50.224Z,6.35
2017-09-14T20:20:21.328Z,4.57
2017-09-14T20:22:50.596Z,6.20
2017-09-14T20:25:22.089Z,5.90
2017-09-14T20:27:52.022Z,6.22
2017-09-14T20:30:22.469Z,6.68
2017-09-14T20:32:52.254Z,5.37
2017-09-14T20:35:21.188Z,18.90
2017-09-14T20:37:50.437Z,5.90
2017-09-14T20:40:20.197Z,5.35
2017-09-14T20:42:49.902Z,4.53
2017-09-14T20:45:19.649Z,4.85
2017-09-14T20:47:48.464Z,5.12
2017-09-14T20:50:17.655Z,4.47
2017-09-14T20:52:46.746Z,4.70
2017-09-14T20:55:15.838Z,4.93
2017-09-14T20:57:44.728Z,4.70
2017-09-14T21:00:14.008Z,4.60
2017-09-14T21:02:43.203Z,4.82
2017-09-14T21:05:12.215Z,4.35
2017-09-14T21:07:41.216Z,4.25
2017-09-14T21:10:10.447Z,4.77
2017-09-14T21:12:40.552Z,3.65
2017-09-14T21:15:10.261Z,4.00
2017-09-14T21:17:39.225Z,4.70
2017-09-14T21:20:08.483Z,4.80
2017-09-14T21:22:37.531Z,3.95
2017-09-14T21:25:06.619Z,3.95
2017-09-14T21:27:35.586Z,4.20
2017-09-14T21:30:04.859Z,3.93
2017-09-14T21:32:33.758Z,4.60
2017-09-14T21:35:02.722Z,4.93
2017-09-14T21:37:32.403Z,4.43
2017-09-14T21:40:01.522Z,4.75
2017-09-14T21:42:31.439Z,3.90
2017-09-14T21:45:01.190Z,4.50
2017-09-14T21:47:30.134Z,4.85
2017-09-14T21:49:59.837Z,4.60
2017-09-14T21:52:29.626Z,5.90
2017-09-14T21:54:59.692Z,8.15
2017-09-14T21:57:28.972Z,9.48
2017-09-14T21:59:58.749Z,9.90
2017-09-14T22:02:27.777Z,9.93
2017-09-14T22:04:56.853Z,10.18
2017-09-14T22:07:26.597Z,9.40
2017-09-14T22:09:55.405Z,10.10
2017-09-14T22:12:24.447Z,10.10
2017-09-14T22:14:54.001Z,11.10
2017-09-14T22:17:22.868Z,11.12
2017-09-14T22:19:51.747Z,10.90
2017-09-14T22:22:20.829Z,10.35
2017-09-14T22:24:50.050Z,12.15
2017-09-14T22:27:19.936Z,9.05
2017-09-14T22:29:49.059Z,10.57
2017-09-14T22:32:18.226Z,9.40
2017-09-14T22:34:48.228Z,8.60
2017-09-14T22:37:17.438Z,9.68
2017-09-14T22:39:47.137Z,9.30
2017-09-14T22:42:16.869Z,8.40
2017-09-14T22:44:46.873Z,8.10
2017-09-14T22:47:16.525Z,7.57
2017-09-14T22:49:45.442Z,7.60
2017-09-14T22:52:14.440Z,8.68
2017-09-14T22:54:43.337Z,8.70
2017-09-14T22:57:13.274Z,7.90
2017-09-14T22:59:43.102Z,7.65
2017-09-14T23:02:12.235Z,7.55
2017-09-14T23:04:41.184Z,8.30
2017-09-14T23:07:10.379Z,7.62
2017-09-14T23:09:39.296Z,7.62
2017-09-14T23:12:08.233Z,7.53
2017-09-14T23:14:38.116Z,22.57
2017-09-14T23:17:07.022Z,9.48
2017-09-14T23:19:36.336Z,11.00
2017-09-14T23:22:06.801Z,12.70
2017-09-14T23:24:35.890Z,7.90
2017-09-14T23:27:05.199Z,7.37
2017-09-14T23:29:34.376Z,7.00
2017-09-14T23:32:03.430Z,6.40
2017-09-14T23:34:33.332Z,4.97
2017-09-14T23:37:02.310Z,5.40
2017-09-14T23:39:31.700Z,5.30
2017-09-14T23:42:01.037Z,4.70
2017-09-14T23:44:30.258Z,4.10
2017-09-14T23:47:00.116Z,4.30
2017-09-14T23:49:29.289Z,4.15
2017-09-14T23:51:58.774Z,4.20
2017-09-14T23:54:27.622Z,3.45
2017-09-14T23:56:56.812Z,3.58
2017-09-14T23:59:26.127Z,3.80
